createdAt,value
2019-04-03T00:00:08.308Z,6.4
2019-04-03T00:00:58.501Z,6.3
2019-04-03T00:01:48.430Z,6.3
2019-04-03T00:02:38.575Z,6.3
2019-04-03T00:03:28.333Z,6.3
2019-04-03T00:04:18.323Z,6.3
2019-04-03T00:05:08.751Z,6.3
2019-04-03T00:05:58.729Z,6.3
2019-04-03T00:06:48.527Z,6.3
2019-04-03T00:07:38.940Z,6.3
2019-04-03T00:08:28.717Z,6.2
2019-04-03T00:09:18.453Z,6.2
2019-04-03T00:10:08.853Z,6.2
2019-04-03T00:10:59.118Z,6.2
2019-04-03T00:11:48.862Z,6.2
2019-04-03T00:12:42.290Z,6.2
2019-04-03T00:13:29.490Z,6.1
2019-04-03T00:14:19.330Z,6.1
2019-04-03T00:15:09.142Z,6.1
2019-04-03T00:15:59.635Z,6.1
2019-04-03T00:16:49.517Z,6.1
2019-04-03T00:17:39.587Z,6.1
2019-04-03T00:18:29.529Z,6.1
2019-04-03T00:19:19.480Z,6.1
2019-04-03T00:20:09.215Z,6.1
2019-04-03T00:20:59.875Z,6
2019-04-03T00:21:52.303Z,6
2019-04-03T00:22:40.172Z,6
2019-04-03T00:23:29.962Z,6
2019-04-03T00:24:23.005Z,6
2019-04-03T00:25:10.124Z,6
2019-04-03T00:26:00.202Z,5.9
2019-04-03T00:26:53.545Z,5.9
2019-04-03T00:27:40.601Z,5.9
2019-04-03T00:28:30.082Z,5.9
2019-04-03T00:29:23.445Z,5.9
2019-04-03T00:30:10.604Z,5.9
2019-04-03T00:31:00.753Z,5.9
2019-04-03T00:31:53.951Z,5.9
2019-04-03T00:32:40.396Z,5.9
2019-04-03T00:33:30.506Z,5.8
2019-04-03T00:34:22.952Z,5.8
2019-04-03T00:35:10.954Z,5.8
2019-04-03T00:36:01.026Z,5.8
2019-04-03T00:36:53.727Z,5.8
2019-04-03T00:37:41.016Z,5.8
2019-04-03T00:38:31.160Z,5.8
2019-04-03T00:39:22.636Z,5.8
2019-04-03T00:40:11.213Z,5.7
2019-04-03T00:41:01.327Z,5.7
2019-04-03T00:41:51.331Z,5.7
2019-04-03T00:42:41.114Z,5.7
2019-04-03T00:43:31.669Z,5.6
2019-04-03T00:44:22.671Z,5.6
2019-04-03T00:45:11.305Z,5.6
2019-04-03T00:46:01.347Z,5.6
2019-04-03T00:46:51.706Z,5.6
2019-04-03T00:47:41.530Z,5.6
2019-04-03T00:48:31.813Z,5.6
2019-04-03T00:49:21.758Z,5.6
2019-04-03T00:50:11.938Z,5.6
2019-04-03T00:51:02.245Z,5.5
2019-04-03T00:51:52.048Z,5.5
2019-04-03T00:52:42.368Z,5.5
2019-04-03T00:53:32.175Z,5.5
2019-04-03T00:54:22.267Z,5.5
2019-04-03T00:55:12.375Z,5.4
2019-04-03T00:56:02.183Z,5.4
2019-04-03T00:56:52.145Z,5.4
2019-04-03T00:57:42.478Z,5.4
2019-04-03T00:58:32.537Z,5.4
2019-04-03T00:59:22.615Z,5.4
2019-04-03T01:00:12.385Z,5.4
2019-04-03T01:01:02.817Z,5.4
2019-04-03T01:01:52.780Z,5.4
2019-04-03T01:02:42.857Z,5.3
2019-04-03T01:03:33.017Z,5.3
2019-04-03T01:04:22.684Z,5.3
2019-04-03T01:05:13.307Z,5.3
2019-04-03T01:06:03.072Z,5.3
2019-04-03T01:06:53.145Z,5.3
2019-04-03T01:07:43.545Z,5.3
2019-04-03T01:08:33.287Z,5.2
2019-04-03T01:09:23.340Z,5.3
2019-04-03T01:10:13.390Z,5.2
2019-04-03T01:11:03.734Z,5.2
2019-04-03T01:11:53.321Z,5.2
2019-04-03T01:12:43.697Z,5.1
2019-04-03T01:13:33.422Z,5.1
2019-04-03T01:14:23.681Z,5.1
2019-04-03T01:15:13.797Z,5.1
2019-04-03T01:16:04.171Z,5.1
2019-04-03T01:16:53.797Z,5.1
2019-04-03T01:17:43.655Z,5.1
2019-04-03T01:18:36.456Z,5
2019-04-03T01:19:23.867Z,5
2019-04-03T01:20:13.834Z,5
2019-04-03T01:21:07.150Z,5
2019-04-03T01:21:54.368Z,5
2019-04-03T01:22:44.019Z,4.9
2019-04-03T01:23:36.940Z,4.9
2019-04-03T01:24:24.436Z,4.9
2019-04-03T01:25:14.241Z,4.9
2019-04-03T01:26:04.653Z,4.9
2019-04-03T01:26:54.958Z,4.9
2019-04-03T01:27:44.661Z,4.9
2019-04-03T01:28:34.736Z,4.9
2019-04-03T01:29:25.018Z,4.9
2019-04-03T01:30:16.008Z,4.8
2019-04-03T01:31:04.947Z,4.8
2019-04-03T01:31:54.885Z,4.8
2019-04-03T01:32:48.241Z,4.8
2019-04-03T01:33:34.996Z,4.8
2019-04-03T01:34:25.377Z,4.8
2019-04-03T01:35:18.607Z,4.8
2019-04-03T01:36:05.395Z,4.7
2019-04-03T01:36:55.043Z,4.7
2019-04-03T01:37:45.103Z,4.7
2019-04-03T01:38:35.575Z,4.6
2019-04-03T01:39:25.218Z,4.6
2019-04-03T01:40:15.291Z,4.6
2019-04-03T01:41:05.337Z,4.6
2019-04-03T01:41:55.468Z,4.6
2019-04-03T01:42:45.461Z,4.6
2019-04-03T01:43:35.382Z,4.6
2019-04-03T01:44:26.773Z,4.6
2019-04-03T01:45:15.911Z,4.6
2019-04-03T01:46:05.834Z,4.5
2019-04-03T01:46:59.272Z,4.5
2019-04-03T01:47:45.895Z,4.5
2019-04-03T01:48:36.252Z,4.4
2019-04-03T01:49:28.950Z,4.4
2019-04-03T01:50:16.282Z,4.4
2019-04-03T01:51:06.057Z,4.4
2019-04-03T01:51:56.657Z,4.4
2019-04-03T01:52:46.475Z,4.4
2019-04-03T01:53:36.659Z,4.4
2019-04-03T01:54:26.590Z,4.4
2019-04-03T01:55:16.655Z,4.4
2019-04-03T01:56:07.070Z,4.3
2019-04-03T01:56:56.901Z,4.3
2019-04-03T01:57:47.205Z,4.3
2019-04-03T01:58:38.040Z,4.3
2019-04-03T01:59:26.712Z,4.3
2019-04-03T02:00:16.685Z,4.3
2019-04-03T02:01:09.317Z,4.3
2019-04-03T02:01:57.369Z,4.2
2019-04-03T02:02:47.222Z,4.2
2019-04-03T02:03:37.266Z,4.2
2019-04-03T02:04:27.061Z,4.1
2019-04-03T02:05:17.382Z,4.2
2019-04-03T02:06:07.455Z,4.1
2019-04-03T02:06:57.217Z,4.1
2019-04-03T02:07:47.837Z,4.1
2019-04-03T02:08:37.344Z,4.1
2019-04-03T02:09:27.672Z,4.1
2019-04-03T02:10:19.479Z,4.1
2019-04-03T02:11:07.839Z,4.1
2019-04-03T02:11:57.894Z,4
2019-04-03T02:12:50.360Z,4
2019-04-03T02:13:37.750Z,4
2019-04-03T02:14:27.673Z,4
2019-04-03T02:15:18.103Z,3.9
2019-04-03T02:16:08.166Z,3.9
2019-04-03T02:16:58.356Z,3.9
2019-04-03T02:17:48.297Z,3.9
2019-04-03T02:18:38.424Z,3.9
2019-04-03T02:19:28.615Z,3.9
2019-04-03T02:20:18.474Z,3.9
2019-04-03T02:21:08.533Z,3.8
2019-04-03T02:22:00.592Z,3.8
2019-04-03T02:22:48.744Z,3.8
2019-04-03T02:23:38.706Z,3.8
2019-04-03T02:24:32.129Z,3.8
2019-04-03T02:25:18.581Z,3.8
2019-04-03T02:26:08.941Z,3.8
2019-04-03T02:26:58.693Z,3.8
2019-04-03T02:27:49.107Z,3.8
2019-04-03T02:28:38.803Z,3.7
2019-04-03T02:29:28.591Z,3.7
2019-04-03T02:30:19.317Z,3.7
2019-04-03T02:31:09.509Z,3.7
2019-04-03T02:31:59.453Z,3.7
2019-04-03T02:32:49.692Z,3.7
2019-04-03T02:33:39.981Z,3.6
2019-04-03T02:34:28.961Z,3.6
2019-04-03T02:35:20.148Z,3.6
2019-04-03T02:36:14.348Z,3.6
2019-04-03T02:36:59.991Z,3.6
2019-04-03T02:37:51.956Z,3.6
2019-04-03T02:38:39.843Z,3.6
2019-04-03T02:39:29.993Z,3.6
2019-04-03T02:40:20.498Z,3.5
2019-04-03T02:41:09.992Z,3.5
2019-04-03T02:42:00.067Z,3.5
2019-04-03T02:42:50.190Z,3.5
2019-04-03T02:43:40.368Z,3.5
2019-04-03T02:44:30.616Z,3.4
2019-04-03T02:45:26.098Z,3.4
2019-04-03T02:46:10.440Z,3.4
2019-04-03T02:47:02.578Z,3.4
2019-04-03T02:47:50.855Z,3.4
2019-04-03T02:48:40.599Z,3.4
2019-04-03T02:49:30.360Z,3.4
2019-04-03T02:50:20.903Z,3.4
2019-04-03T02:51:10.728Z,3.4
2019-04-03T02:52:00.773Z,3.4
2019-04-03T02:52:51.046Z,3.3
2019-04-03T02:53:41.089Z,3.3
2019-04-03T02:54:35.987Z,3.3
2019-04-03T02:55:21.143Z,3.3
2019-04-03T02:56:14.940Z,3.3
2019-04-03T02:57:01.454Z,3.3
2019-04-03T02:57:52.568Z,3.3
2019-04-03T02:58:41.344Z,3.3
2019-04-03T02:59:31.426Z,3.3
2019-04-03T03:00:21.575Z,3.3
2019-04-03T03:01:11.782Z,3.3
2019-04-03T03:02:01.496Z,3.2
2019-04-03T03:02:51.318Z,3.2
2019-04-03T03:03:41.638Z,3.2
2019-04-03T03:07:12.673Z,3.1
2019-04-03T03:08:02.122Z,3.1
2019-04-03T03:08:52.522Z,3.1
2019-04-03T03:09:48.475Z,3.1
2019-04-03T03:10:33.119Z,3.1
2019-04-03T03:11:26.107Z,3.1
2019-04-03T03:12:12.434Z,3.1
2019-04-03T03:13:04.159Z,3.1
2019-04-03T03:13:52.794Z,3.1
2019-04-03T03:14:42.809Z,3.1
2019-04-03T03:15:33.407Z,3.1
2019-04-03T03:16:22.651Z,3
2019-04-03T03:17:13.086Z,3
2019-04-03T03:18:03.851Z,3
2019-04-03T03:18:53.188Z,3
2019-04-03T03:19:43.155Z,3
2019-04-03T03:20:33.390Z,2.9
2019-04-03T03:21:23.840Z,2.9
2019-04-03T03:22:19.015Z,2.9
2019-04-03T03:23:03.150Z,2.9
2019-04-03T03:23:58.252Z,2.9
2019-04-03T03:24:43.507Z,2.9
2019-04-03T03:25:35.179Z,2.9
2019-04-03T03:26:23.352Z,2.9
2019-04-03T03:27:13.507Z,2.9
2019-04-03T03:28:04.045Z,2.9
2019-04-03T03:28:54.141Z,2.9
2019-04-03T03:29:44.095Z,2.9
2019-04-03T03:31:05.874Z,2.9
2019-04-03T03:32:41.952Z,2.8
2019-04-03T03:33:48.929Z,2.8
2019-04-03T03:35:20.395Z,2.8
2019-04-03T03:36:10.400Z,2.8
2019-04-03T03:37:04.678Z,2.8
2019-04-03T03:37:47.323Z,2.8
2019-04-03T03:38:42.023Z,2.8
2019-04-03T03:39:28.414Z,2.8
2019-04-03T03:40:19.326Z,2.8
2019-04-03T03:41:08.009Z,2.8
2019-04-03T03:42:00.571Z,2.7
2019-04-03T03:42:48.221Z,2.7
2019-04-03T03:43:40.224Z,2.8
2019-04-03T03:44:28.996Z,2.7
2019-04-03T03:45:22.612Z,2.7
2019-04-03T03:46:08.291Z,2.7
2019-04-03T03:47:04.223Z,2.6
2019-04-03T03:47:48.312Z,2.7
2019-04-03T03:48:46.255Z,2.7
2019-04-03T03:49:28.734Z,2.6
2019-04-03T03:50:26.200Z,2.6
2019-04-03T03:51:09.104Z,2.6
2019-04-03T03:52:05.338Z,2.6
2019-04-03T03:52:48.699Z,2.6
2019-04-03T03:53:46.016Z,2.6
2019-04-03T03:54:29.387Z,2.6
2019-04-03T03:55:25.408Z,2.6
2019-04-03T03:56:09.596Z,2.6
2019-04-03T03:57:03.793Z,2.6
2019-04-03T03:57:49.692Z,2.6
2019-04-03T03:58:39.388Z,2.6
2019-04-03T03:59:29.458Z,2.6
2019-04-03T04:00:25.517Z,2.5
2019-04-03T04:01:09.794Z,2.5
2019-04-03T04:02:06.015Z,2.5
2019-04-03T04:02:49.785Z,2.5
2019-04-03T04:03:43.364Z,2.5
2019-04-03T04:04:30.043Z,2.4
2019-04-03T04:05:24.445Z,2.5
2019-04-03T04:06:09.504Z,2.4
2019-04-03T04:07:05.398Z,2.4
2019-04-03T04:07:50.325Z,2.4
2019-04-03T04:08:46.169Z,2.4
2019-04-03T04:09:30.011Z,2.4
2019-04-03T04:10:23.508Z,2.4
2019-04-03T04:11:10.398Z,2.4
2019-04-03T04:12:04.175Z,2.4
2019-04-03T04:12:50.994Z,2.4
2019-04-03T04:13:40.553Z,2.4
2019-04-03T04:14:30.526Z,2.4
2019-04-03T04:15:20.322Z,2.4
2019-04-03T04:16:10.671Z,2.4
2019-04-03T04:17:00.728Z,2.4
2019-04-03T04:17:52.688Z,2.4
2019-04-03T04:18:41.077Z,2.4
2019-04-03T04:19:32.992Z,2.4
2019-04-03T04:20:21.507Z,2.4
2019-04-03T04:21:13.364Z,2.4
2019-04-03T04:22:01.183Z,2.4
2019-04-03T04:22:53.213Z,2.4
2019-04-03T04:23:41.281Z,2.4
2019-04-03T04:24:31.271Z,2.3
2019-04-03T04:25:21.036Z,2.3
2019-04-03T04:26:11.373Z,2.3
2019-04-03T04:27:04.291Z,2.4
2019-04-03T04:27:51.463Z,2.3
2019-04-03T04:28:42.512Z,2.3
2019-04-03T04:29:31.215Z,2.3
2019-04-03T04:30:21.092Z,2.3
2019-04-03T04:31:14.424Z,2.3
2019-04-03T04:32:02.046Z,2.3
2019-04-03T04:32:51.885Z,2.3
2019-04-03T04:33:41.789Z,2.3
2019-04-03T04:34:32.001Z,2.3
2019-04-03T04:35:23.518Z,2.3
2019-04-03T04:36:12.066Z,2.3
2019-04-03T04:37:04.537Z,2.3
2019-04-03T04:37:53.690Z,2.3
2019-04-03T04:38:41.975Z,2.3
2019-04-03T04:39:32.642Z,2.3
2019-04-03T04:40:22.096Z,2.3
2019-04-03T04:41:12.519Z,2.4
2019-04-03T04:42:06.191Z,2.4
2019-04-03T04:42:52.787Z,2.4
2019-04-03T04:43:43.009Z,2.4
2019-04-03T04:44:32.425Z,2.4
2019-04-03T04:45:22.490Z,2.4
2019-04-03T04:46:15.050Z,2.4
2019-04-03T04:47:03.062Z,2.4
2019-04-03T04:47:52.903Z,2.4
2019-04-03T04:48:42.707Z,2.4
2019-04-03T04:49:32.743Z,2.4
2019-04-03T04:50:26.480Z,2.4
2019-04-03T04:51:13.162Z,2.5
2019-04-03T04:52:03.460Z,2.5
2019-04-03T04:52:53.510Z,2.5
2019-04-03T04:53:43.394Z,2.5
2019-04-03T04:54:33.381Z,2.6
2019-04-03T04:55:23.435Z,2.6
2019-04-03T04:56:13.182Z,2.6
2019-04-03T04:57:03.313Z,2.6
2019-04-03T04:57:53.819Z,2.6
2019-04-03T04:58:44.974Z,2.7
2019-04-03T04:59:37.582Z,2.7
2019-04-03T05:00:23.642Z,2.7
2019-04-03T05:01:13.870Z,2.8
2019-04-03T05:02:04.162Z,2.8
2019-04-03T05:02:53.977Z,2.8
2019-04-03T05:03:44.143Z,2.8
2019-04-03T05:04:34.092Z,2.9
2019-04-03T05:05:27.775Z,2.9
2019-04-03T05:06:14.479Z,2.9
2019-04-03T05:07:04.371Z,2.9
2019-04-03T05:07:53.776Z,3
2019-04-03T05:08:44.552Z,3
2019-04-03T05:09:36.676Z,3.1
2019-04-03T05:10:24.244Z,3.1
2019-04-03T05:11:14.166Z,3.2
2019-04-03T05:12:04.704Z,3.3
2019-04-03T05:12:54.423Z,3.3
2019-04-03T05:13:47.938Z,3.3
2019-04-03T05:14:34.940Z,3.4
2019-04-03T05:15:25.558Z,3.4
2019-04-03T05:16:14.571Z,3.5
2019-04-03T05:17:04.771Z,3.6
2019-04-03T05:17:58.342Z,3.7
2019-04-03T05:18:44.848Z,3.7
2019-04-03T05:19:35.363Z,3.8
2019-04-03T05:20:25.518Z,3.9
2019-04-03T05:21:15.381Z,3.9
2019-04-03T05:22:05.361Z,4.1
2019-04-03T05:22:57.069Z,4.1
2019-04-03T05:23:44.931Z,4.2
2019-04-03T05:24:35.605Z,4.3
2019-04-03T05:25:25.844Z,4.4
2019-04-03T05:26:15.676Z,4.4
2019-04-03T05:27:09.224Z,4.6
2019-04-03T05:27:55.291Z,4.7
2019-04-03T05:28:58.757Z,4.8
2019-04-03T05:29:36.213Z,4.9
2019-04-03T05:30:25.688Z,4.9
2019-04-03T05:31:16.013Z,5.1
2019-04-03T05:32:06.766Z,5.2
2019-04-03T05:32:56.135Z,5.3
2019-04-03T05:33:46.412Z,5.4
2019-04-03T05:34:35.972Z,5.5
2019-04-03T05:35:26.153Z,5.6
2019-04-03T05:36:19.381Z,5.7
2019-04-03T05:37:06.665Z,5.9
2019-04-03T05:37:56.204Z,6
2019-04-03T05:38:46.597Z,6.1
2019-04-03T05:39:36.495Z,6.3
2019-04-03T05:40:27.814Z,6.4
2019-04-03T05:41:16.731Z,6.5
2019-04-03T05:42:06.807Z,6.7
2019-04-03T05:42:57.877Z,6.8
2019-04-03T05:43:46.859Z,6.9
2019-04-03T05:44:37.020Z,7.1
2019-04-03T05:45:27.222Z,7.3
2019-04-03T05:46:20.584Z,7.4
2019-04-03T05:47:09.397Z,7.6
2019-04-03T05:47:57.172Z,7.8
2019-04-03T05:48:49.637Z,7.9
2019-04-03T05:49:37.320Z,8.1
2019-04-03T05:50:28.489Z,8.3
2019-04-03T05:51:17.656Z,8.4
2019-04-03T05:52:07.609Z,8.6
2019-04-03T05:52:57.579Z,8.8
2019-04-03T05:53:47.359Z,9
2019-04-03T05:54:43.853Z,9.2
2019-04-03T05:55:27.699Z,9.4
2019-04-03T05:56:17.869Z,9.6
2019-04-03T05:57:07.700Z,9.8
2019-04-03T05:57:57.713Z,10
2019-04-03T05:59:10.850Z,10.4
2019-04-03T06:00:07.899Z,10.5
2019-04-03T06:01:07.125Z,10.8
2019-04-03T06:01:47.424Z,11.1
2019-04-03T06:02:30.895Z,11.2
2019-04-03T06:05:14.449Z,11.9
2019-04-03T06:06:02.441Z,7.8
2019-04-03T06:06:52.023Z,13.1
2019-04-03T06:07:42.431Z,15
2019-04-03T06:08:36.438Z,15.4
2019-04-03T06:09:24.481Z,16.8
2019-04-03T06:10:12.285Z,20
2019-04-03T06:11:10.213Z,21.8
2019-04-03T06:11:54.221Z,21.8
2019-04-03T06:12:46.844Z,20.8
2019-04-03T06:13:32.711Z,19.6
2019-04-03T06:14:24.717Z,18.8
2019-04-03T06:15:12.982Z,18.3
2019-04-03T06:16:03.235Z,18.4
2019-04-03T06:16:56.777Z,18.9
2019-04-03T06:17:43.323Z,19.4
2019-04-03T06:18:33.930Z,19.8
2019-04-03T06:19:23.018Z,20.1
2019-04-03T06:20:13.150Z,20.2
2019-04-03T06:21:03.333Z,20.1
2019-04-03T06:21:53.020Z,20.1
2019-04-03T06:22:43.900Z,20.1
2019-04-03T06:23:33.137Z,20.1
2019-04-03T06:24:26.225Z,20.3
2019-04-03T06:25:15.833Z,20.4
2019-04-03T06:26:04.446Z,20.6
2019-04-03T06:26:53.390Z,20.8
2019-04-03T06:27:47.662Z,20.9
2019-04-03T06:28:33.879Z,21.1
2019-04-03T06:29:24.206Z,21.2
2019-04-03T06:30:13.995Z,21.3
2019-04-03T06:31:04.224Z,21.4
2019-04-03T06:31:54.099Z,21.5
2019-04-03T06:32:44.017Z,21.6
2019-04-03T06:33:37.394Z,21.8
2019-04-03T06:34:23.825Z,21.9
2019-04-03T06:35:15.769Z,22
2019-04-03T06:36:04.487Z,22.2
2019-04-03T06:36:54.626Z,22.3
2019-04-03T06:37:44.460Z,22.4
2019-04-03T06:38:34.894Z,22.6
2019-04-03T06:39:32.707Z,22.7
2019-04-03T06:40:14.681Z,22.9
2019-04-03T06:41:07.761Z,23
2019-04-03T06:41:55.114Z,23.1
2019-04-03T06:42:46.732Z,23.3
2019-04-03T06:43:35.181Z,23.4
2019-04-03T06:44:25.031Z,23.5
2019-04-03T06:45:17.354Z,23.6
2019-04-03T06:46:05.259Z,23.8
2019-04-03T06:46:56.519Z,23.9
2019-04-03T06:47:45.487Z,24.1
2019-04-03T06:48:38.272Z,24.2
2019-04-03T06:49:25.668Z,24.3
2019-04-03T06:50:18.888Z,24.5
2019-04-03T06:51:05.127Z,24.6
2019-04-03T06:51:55.833Z,24.8
2019-04-03T06:52:45.709Z,24.9
2019-04-03T06:53:35.924Z,25
2019-04-03T06:54:25.966Z,25.1
2019-04-03T06:55:15.906Z,25.3
2019-04-03T06:56:09.035Z,25.4
2019-04-03T06:56:55.787Z,25.6
2019-04-03T06:57:46.244Z,25.8
2019-04-03T06:58:44.814Z,25.9
2019-04-03T06:59:26.062Z,26.1
2019-04-03T07:00:16.115Z,26.2
2019-04-03T07:01:05.862Z,26.3
2019-04-03T07:01:56.613Z,26.5
2019-04-03T07:02:46.319Z,26.6
2019-04-03T07:05:12.520Z,27.1
2019-04-03T07:06:02.278Z,27.3
2019-04-03T07:06:55.627Z,27.4
2019-04-03T07:07:42.120Z,27.6
2019-04-03T07:08:41.681Z,27.7
2019-04-03T07:09:38.080Z,27.9
2019-04-03T07:10:27.067Z,28.1
2019-04-03T07:11:02.482Z,28.3
2019-04-03T07:11:52.522Z,28.4
2019-04-03T07:12:43.021Z,28.5
2019-04-03T07:13:32.596Z,28.7
2019-04-03T07:14:25.595Z,28.8
2019-04-03T07:15:13.160Z,29
2019-04-03T07:16:03.219Z,29.1
2019-04-03T07:16:52.884Z,29.3
2019-04-03T07:17:42.949Z,29.4
2019-04-03T07:18:34.667Z,29.5
2019-04-03T07:19:23.134Z,29.7
2019-04-03T07:20:21.426Z,29.8
2019-04-03T07:21:03.189Z,30
2019-04-03T07:21:56.986Z,30.1
2019-04-03T07:22:43.493Z,30.3
2019-04-03T07:23:33.200Z,30.4
2019-04-03T07:24:23.164Z,30.6
2019-04-03T07:25:13.530Z,30.8
2019-04-03T07:26:06.573Z,30.9
2019-04-03T07:26:53.881Z,31.1
2019-04-03T07:27:43.927Z,31.2
2019-04-03T07:28:34.096Z,31.3
2019-04-03T07:29:26.954Z,31.5
2019-04-03T07:30:16.875Z,31.7
2019-04-03T07:31:04.246Z,31.9
2019-04-03T07:31:56.436Z,31.9
2019-04-03T07:32:43.989Z,32.1
2019-04-03T07:33:34.561Z,32.3
2019-04-03T07:34:24.213Z,32.4
2019-04-03T07:35:14.603Z,32.7
2019-04-03T07:36:04.298Z,32.8
2019-04-03T07:36:54.177Z,33
2019-04-03T07:37:44.421Z,33.1
2019-04-03T07:38:34.660Z,33.3
2019-04-03T07:39:24.688Z,33.4
2019-04-03T07:40:14.676Z,33.6
2019-04-03T07:41:04.660Z,33.8
2019-04-03T07:41:56.140Z,34
2019-04-03T07:42:44.865Z,34.2
2019-04-03T07:43:35.148Z,34.3
2019-04-03T07:44:24.948Z,34.4
2019-04-03T07:45:14.940Z,34.7
2019-04-03T07:46:05.487Z,34.8
2019-04-03T07:46:56.794Z,35
2019-04-03T07:47:45.128Z,35.2
2019-04-03T07:48:38.825Z,35.3
2019-04-03T07:49:25.105Z,35.5
2019-04-03T07:50:15.770Z,35.6
2019-04-03T07:51:05.338Z,35.8
2019-04-03T07:51:55.670Z,36
2019-04-03T07:52:49.679Z,36.1
2019-04-03T07:53:35.544Z,36.3
2019-04-03T07:54:28.445Z,36.4
2019-04-03T07:55:15.260Z,36.6
2019-04-03T07:56:05.730Z,36.8
2019-04-03T07:56:59.093Z,36.9
2019-04-03T07:57:46.035Z,37.1
2019-04-03T07:58:35.942Z,37.3
2019-04-03T07:59:26.148Z,37.4
2019-04-03T08:00:16.162Z,37.6
2019-04-03T08:01:06.277Z,37.8
2019-04-03T08:01:56.212Z,37.9
2019-04-03T08:02:50.779Z,38.1
2019-04-03T08:03:36.437Z,38.3
2019-04-03T08:05:51.220Z,38.8
2019-04-03T08:06:41.467Z,38.8
2019-04-03T08:07:31.638Z,39
2019-04-03T08:08:22.199Z,39.1
2019-04-03T08:09:12.233Z,39.3
2019-04-03T08:10:02.222Z,39.4
2019-04-03T08:10:52.051Z,39.6
2019-04-03T08:11:41.624Z,39.8
2019-04-03T08:12:35.866Z,39.9
2019-04-03T08:13:22.219Z,40.1
2019-04-03T08:14:12.343Z,40.3
2019-04-03T08:15:02.426Z,40.4
2019-04-03T08:15:52.347Z,40.6
2019-04-03T08:16:45.852Z,40.7
2019-04-03T08:17:32.458Z,40.9
2019-04-03T08:18:23.488Z,41
2019-04-03T08:19:11.968Z,41.1
2019-04-03T08:20:03.253Z,41.3
2019-04-03T08:20:52.616Z,41.4
2019-04-03T08:21:42.769Z,41.6
2019-04-03T08:22:35.803Z,41.7
2019-04-03T08:23:22.510Z,41.9
2019-04-03T08:24:12.839Z,42
2019-04-03T08:25:03.257Z,42.2
2019-04-03T08:25:56.291Z,42.3
2019-04-03T08:26:43.024Z,42.5
2019-04-03T08:27:32.760Z,42.7
2019-04-03T08:28:30.687Z,42.8
2019-04-03T08:29:13.751Z,43
2019-04-03T08:30:03.559Z,43.1
2019-04-03T08:30:53.760Z,43.2
2019-04-03T08:31:49.588Z,43.3
2019-04-03T08:32:33.844Z,43.4
2019-04-03T08:33:28.838Z,43.5
2019-04-03T08:34:19.812Z,43.6
2019-04-03T08:35:23.037Z,43.8
2019-04-03T08:35:54.407Z,43.9
2019-04-03T08:36:43.743Z,44
2019-04-03T08:37:34.231Z,44.1
2019-04-03T08:38:24.385Z,44.3
2019-04-03T08:39:18.416Z,44.4
2019-04-03T08:40:03.672Z,44.6
2019-04-03T08:40:55.342Z,44.8
2019-04-03T08:41:44.180Z,44.9
2019-04-03T08:42:34.776Z,45.1
2019-04-03T08:43:24.446Z,45.2
2019-04-03T08:44:14.058Z,45.3
2019-04-03T08:45:08.589Z,45.4
2019-04-03T08:45:54.408Z,45.6
2019-04-03T08:46:45.784Z,45.7
2019-04-03T08:47:38.189Z,45.9
2019-04-03T08:48:24.685Z,46
2019-04-03T08:49:14.692Z,46.1
2019-04-03T08:50:05.073Z,46.3
2019-04-03T08:50:54.531Z,46.4
2019-04-03T08:51:44.839Z,46.6
2019-04-03T08:52:38.992Z,46.6
2019-04-03T08:53:25.043Z,46.8
2019-04-03T08:54:15.292Z,46.9
2019-04-03T08:55:05.384Z,47.1
2019-04-03T08:55:58.096Z,47.3
2019-04-03T08:56:48.283Z,47.4
2019-04-03T08:57:35.317Z,47.6
2019-04-03T08:58:28.241Z,47.7
2019-04-03T08:59:15.401Z,47.8
2019-04-03T09:00:05.471Z,47.9
2019-04-03T09:00:55.439Z,48.1
2019-04-03T09:01:45.970Z,48.2
2019-04-03T09:02:36.050Z,48.4
2019-04-03T09:03:25.466Z,48.6
2019-04-03T09:04:18.842Z,48.6
2019-04-03T09:05:06.215Z,48.8
2019-04-03T09:05:57.492Z,48.9
2019-04-03T09:06:45.596Z,49.1
2019-04-03T09:07:36.483Z,49.2
2019-04-03T09:08:28.693Z,49.4
2019-04-03T09:09:16.238Z,49.5
2019-04-03T09:10:06.491Z,49.6
2019-04-03T09:10:56.035Z,49.8
2019-04-03T09:11:46.213Z,49.9
2019-04-03T09:12:39.916Z,50.1
2019-04-03T09:13:26.515Z,50.2
2019-04-03T09:14:19.410Z,50.2
2019-04-03T09:15:06.903Z,50.3
2019-04-03T09:16:00.830Z,50.4
2019-04-03T09:16:47.026Z,50.6
2019-04-03T09:17:36.875Z,50.8
2019-04-03T09:18:30.898Z,50.9
2019-04-03T09:19:19.040Z,51.1
2019-04-03T09:20:06.777Z,51.2
2019-04-03T09:20:56.776Z,51.3
2019-04-03T09:21:52.335Z,51.3
2019-04-03T09:22:37.088Z,51.3
2019-04-03T09:23:27.172Z,51.3
2019-04-03T09:24:17.284Z,51.4
2019-04-03T09:25:07.130Z,51.6
2019-04-03T09:25:57.320Z,51.7
2019-04-03T09:26:47.623Z,51.8
2019-04-03T09:27:41.366Z,51.9
2019-04-03T09:28:27.397Z,51.9
2019-04-03T09:29:17.600Z,51.9
2019-04-03T09:30:07.777Z,51.9
2019-04-03T09:30:57.670Z,51.8
2019-04-03T09:31:49.161Z,51.8
2019-04-03T09:33:31.370Z,52
2019-04-03T09:34:18.190Z,52.1
2019-04-03T09:35:08.120Z,52.1
2019-04-03T09:36:05.238Z,52.2
2019-04-03T09:36:47.852Z,52.2
2019-04-03T09:37:39.542Z,52.2
2019-04-03T09:38:28.607Z,52.1
2019-04-03T09:39:18.533Z,52.1
2019-04-03T09:40:08.774Z,52.1
2019-04-03T09:40:58.653Z,52.1
2019-04-03T09:41:51.127Z,52.1
2019-04-03T09:42:38.449Z,52.1
2019-04-03T09:43:28.886Z,52
2019-04-03T09:46:02.204Z,51.9
2019-04-03T09:49:19.349Z,52
2019-04-03T09:50:09.109Z,52.1
2019-04-03T09:50:59.186Z,52.1
2019-04-03T09:51:53.053Z,52.1
2019-04-03T09:52:53.983Z,52.1
2019-04-03T09:53:29.526Z,52.1
2019-04-03T09:54:19.545Z,52.1
2019-04-03T09:55:09.410Z,52.3
2019-04-03T09:55:59.577Z,52.6
2019-04-03T09:57:06.529Z,53.1
2019-04-03T09:57:39.682Z,53.4
2019-04-03T09:58:29.626Z,53.6
2019-04-03T09:59:20.008Z,53.7
2019-04-03T10:00:12.557Z,53.8
2019-04-03T10:00:59.578Z,53.9
2019-04-03T10:01:50.223Z,54.1
2019-04-03T10:02:40.080Z,54.3
2019-04-03T10:03:32.755Z,54.5
2019-04-03T10:06:12.083Z,54.9
2019-04-03T10:07:04.485Z,55.1
2019-04-03T10:07:52.738Z,55.3
2019-04-03T10:08:42.628Z,55.3
2019-04-03T10:09:32.583Z,55.4
2019-04-03T10:10:25.208Z,55.6
2019-04-03T10:11:19.481Z,55.7
2019-04-03T10:12:02.590Z,55.9
2019-04-03T10:12:55.407Z,55.9
2019-04-03T10:13:42.881Z,56.1
2019-04-03T10:14:32.878Z,56.1
2019-04-03T10:15:23.310Z,56.2
2019-04-03T10:16:16.869Z,56.2
2019-04-03T10:17:07.115Z,56
2019-04-03T10:17:52.640Z,55.9
2019-04-03T10:18:44.641Z,56
2019-04-03T10:19:32.872Z,56.1
2019-04-03T10:20:23.100Z,56.4
2019-04-03T10:21:13.465Z,56.6
2019-04-03T10:22:03.502Z,56.6
2019-04-03T10:22:57.555Z,56.7
2019-04-03T10:23:42.960Z,56.8
2019-04-03T10:24:33.810Z,56.8
2019-04-03T10:25:23.721Z,56.8
2019-04-03T10:26:13.693Z,56.8
2019-04-03T10:27:03.422Z,56.8
2019-04-03T10:27:53.687Z,56.9
2019-04-03T10:28:49.098Z,56.9
2019-04-03T10:29:33.789Z,56.9
2019-04-03T10:30:24.391Z,56.9
2019-04-03T10:31:13.805Z,57.1
2019-04-03T10:32:04.179Z,57.2
2019-04-03T10:32:54.163Z,57.1
2019-04-03T10:33:44.056Z,56.9
2019-04-03T10:34:37.894Z,56.8
2019-04-03T10:35:24.169Z,56.6
2019-04-03T10:37:04.376Z,56.9
2019-04-03T10:37:54.622Z,57.1
2019-04-03T10:38:59.017Z,57.2
2019-04-03T10:39:34.571Z,57.3
2019-04-03T10:40:26.864Z,57.4
2019-04-03T10:41:14.564Z,57.5
2019-04-03T10:42:05.268Z,57.6
2019-04-03T10:42:55.037Z,57.7
2019-04-03T10:43:44.777Z,57.8
2019-04-03T10:44:34.747Z,57.9
2019-04-03T10:45:24.938Z,58
2019-04-03T10:46:14.801Z,58.1
2019-04-03T10:47:04.728Z,58.2
2019-04-03T10:47:57.976Z,58.3
2019-04-03T10:48:45.196Z,58.4
2019-04-03T10:49:35.463Z,58.3
2019-04-03T10:50:25.214Z,58.3
2019-04-03T10:51:15.206Z,58.3
2019-04-03T10:52:05.633Z,58.4
2019-04-03T10:52:55.413Z,58.5
2019-04-03T10:53:46.045Z,58.6
2019-04-03T10:54:39.312Z,58.7
2019-04-03T10:55:30.411Z,58.7
2019-04-03T10:56:15.553Z,58.5
2019-04-03T10:57:05.813Z,58.3
2019-04-03T10:57:55.722Z,57.9
2019-04-03T10:58:46.330Z,57.7
2019-04-03T10:59:35.951Z,57.9
2019-04-03T11:00:30.182Z,58
2019-04-03T11:01:16.024Z,58.4
2019-04-03T11:02:06.283Z,58.7
2019-04-03T11:02:55.797Z,58.8
2019-04-03T11:03:46.130Z,58.7
2019-04-03T11:04:36.181Z,58.7
2019-04-03T11:05:26.564Z,58.8
2019-04-03T11:06:16.314Z,58.9
2019-04-03T11:07:06.310Z,59.1
2019-04-03T11:07:56.572Z,59.2
2019-04-03T11:08:46.477Z,59.4
2019-04-03T11:09:36.411Z,59.5
2019-04-03T11:10:27.304Z,59.5
2019-04-03T11:11:16.873Z,59.6
2019-04-03T11:12:10.703Z,59.7
2019-04-03T11:12:57.233Z,59.8
2019-04-03T11:13:46.637Z,59.9
2019-04-03T11:14:41.015Z,59.9
2019-04-03T11:15:27.554Z,60
2019-04-03T11:16:18.095Z,60.1
2019-04-03T11:17:07.584Z,60
2019-04-03T11:17:57.550Z,60
2019-04-03T11:19:08.085Z,60
2019-04-03T11:19:39.771Z,60.1
2019-04-03T11:20:27.789Z,60.2
2019-04-03T11:21:17.467Z,60.3
2019-04-03T11:22:07.754Z,60.3
2019-04-03T11:24:50.932Z,60.4
2019-04-03T11:25:48.101Z,60.5
2019-04-03T11:26:31.488Z,60.5
2019-04-03T11:27:44.011Z,60.6
2019-04-03T11:28:11.353Z,60.6
2019-04-03T11:29:01.058Z,60.6
2019-04-03T11:29:51.632Z,60.6
2019-04-03T11:30:41.263Z,60.7
2019-04-03T11:31:43.623Z,60.7
2019-04-03T11:32:23.969Z,60.6
2019-04-03T11:33:15.333Z,60.7
2019-04-03T11:34:01.504Z,60.7
2019-04-03T11:34:54.615Z,60.8
2019-04-03T11:35:41.346Z,60.9
2019-04-03T11:36:32.651Z,60.9
2019-04-03T11:37:21.837Z,61
2019-04-03T11:38:29.944Z,61.1
2019-04-03T11:39:17.610Z,61.1
2019-04-03T11:40:07.263Z,61.2
2019-04-03T11:40:42.853Z,61.3